createdAt,value
2023-01-22T00:02:27.616Z,-1.33
2023-01-22T00:05:30.004Z,-1.40
2023-01-22T00:08:32.673Z,-1.37
2023-01-22T00:11:34.928Z,-1.33
2023-01-22T00:14:37.427Z,-1.37
2023-01-22T00:17:39.782Z,-1.35
2023-01-22T00:20:42.337Z,-1.39
2023-01-22T00:23:44.699Z,-1.38
2023-01-22T00:26:47.040Z,-1.39
2023-01-22T00:29:49.308Z,-1.46
2023-01-22T00:32:51.558Z,-1.49
2023-01-22T00:35:53.981Z,-1.45
2023-01-22T00:38:56.902Z,-1.39
2023-01-22T00:41:59.226Z,-1.50
2023-01-22T00:45:01.573Z,-1.44
2023-01-22T00:48:04.006Z,-1.50
2023-01-22T00:51:08.874Z,-1.43
2023-01-22T00:54:11.800Z,-1.51
2023-01-22T00:57:14.208Z,-1.51
2023-01-22T01:00:18.601Z,-1.47
2023-01-22T01:03:32.316Z,-1.53
2023-01-22T01:06:34.722Z,-1.56
2023-01-22T01:09:37.082Z,-1.47
2023-01-22T01:12:39.415Z,-1.51
2023-01-22T01:15:42.042Z,-1.61
2023-01-22T01:18:44.776Z,-1.61
2023-01-22T01:21:47.896Z,-1.50
2023-01-22T01:24:50.239Z,-1.58
2023-01-22T01:27:52.600Z,-1.59
2023-01-22T01:30:55.003Z,-1.57
2023-01-22T01:33:57.634Z,-1.61
2023-01-22T01:36:59.951Z,-1.58
2023-01-22T01:40:02.285Z,-1.55
2023-01-22T01:43:04.822Z,-1.58
2023-01-22T01:46:16.900Z,-1.54
2023-01-22T01:49:27.070Z,-1.58
2023-01-22T01:52:29.374Z,-1.57
2023-01-22T01:55:32.796Z,-1.54
2023-01-22T01:58:36.800Z,-1.55
2023-01-22T02:01:39.001Z,-1.60
2023-01-22T02:04:41.351Z,-1.57
2023-01-22T02:07:43.703Z,-1.51
2023-01-22T02:10:46.123Z,-1.55
2023-01-22T02:13:52.402Z,-1.55
2023-01-22T02:17:22.667Z,-1.55
2023-01-22T02:20:26.734Z,-1.58
2023-01-22T02:23:31.754Z,-1.62
2023-01-22T02:26:34.394Z,-1.54
2023-01-22T02:29:37.003Z,-1.88
2023-01-22T02:32:39.319Z,-1.56
2023-01-22T02:35:41.624Z,-1.59
2023-01-22T02:38:44.108Z,-1.55
2023-01-22T02:41:46.708Z,-1.66
2023-01-22T02:44:53.075Z,-1.57
2023-01-22T02:47:55.466Z,-1.52
2023-01-22T02:50:57.858Z,-1.51
2023-01-22T02:54:00.285Z,-1.61
2023-01-22T02:57:02.704Z,-1.57
2023-01-22T03:00:05.580Z,-1.61
2023-01-22T03:03:08.025Z,-1.54
2023-01-22T03:06:10.288Z,-1.60
2023-01-22T03:09:14.736Z,-1.63
2023-01-22T03:12:17.094Z,-1.63
2023-01-22T03:15:38.324Z,-1.70
2023-01-22T03:18:59.635Z,-1.61
2023-01-22T03:22:02.153Z,-1.53
2023-01-22T03:25:05.305Z,-1.54
2023-01-22T03:28:18.781Z,-1.59
2023-01-22T03:31:27.307Z,-1.58
2023-01-22T03:34:29.784Z,-1.58
2023-01-22T03:37:33.471Z,-1.60
2023-01-22T03:40:35.759Z,-1.61
2023-01-22T03:43:38.326Z,-1.61
2023-01-22T03:46:43.950Z,-1.65
2023-01-22T03:49:46.763Z,-1.60
2023-01-22T03:52:49.301Z,-1.71
2023-01-22T03:56:04.153Z,-1.59
2023-01-22T03:59:08.515Z,-1.59
2023-01-22T04:02:11.001Z,-1.67
2023-01-22T04:05:26.558Z,-1.59
2023-01-22T04:08:31.007Z,-1.63
2023-01-22T04:11:34.166Z,-1.55
2023-01-22T04:14:36.568Z,-1.49
2023-01-22T04:17:39.836Z,-1.52
2023-01-22T04:20:56.345Z,-1.56
2023-01-22T04:24:10.147Z,-1.53
2023-01-22T04:27:12.516Z,-1.48
2023-01-22T04:30:15.073Z,-1.46
2023-01-22T04:33:17.515Z,-1.45
2023-01-22T04:36:34.221Z,-1.47
2023-01-22T04:39:36.544Z,-1.59
2023-01-22T04:42:38.895Z,-1.50
2023-01-22T04:45:41.248Z,-1.45
2023-01-22T04:48:46.193Z,-1.45
2023-01-22T04:51:49.112Z,-1.46
2023-01-22T04:54:52.133Z,-1.46
2023-01-22T04:57:56.500Z,-1.40
2023-01-22T05:00:59.175Z,-1.40
2023-01-22T05:04:03.043Z,-1.42
2023-01-22T05:07:08.156Z,-1.42
2023-01-22T05:10:11.150Z,-1.36
2023-01-22T05:13:13.518Z,-1.40
2023-01-22T05:16:18.445Z,-1.27
2023-01-22T05:19:20.776Z,-1.29
2023-01-22T05:22:23.996Z,-1.31
2023-01-22T05:25:26.499Z,-1.35
2023-01-22T05:28:28.920Z,-1.32
2023-01-22T05:31:45.257Z,-1.29
2023-01-22T05:35:01.567Z,-1.31
2023-01-22T05:38:04.400Z,-1.28
2023-01-22T05:41:06.848Z,-1.25
2023-01-22T05:44:14.545Z,-1.24
2023-01-22T05:47:20.567Z,-1.18
2023-01-22T05:50:38.235Z,-1.31
2023-01-22T05:53:44.856Z,-1.29
2023-01-22T05:56:48.556Z,-1.35
2023-01-22T05:59:50.931Z,-1.31
2023-01-22T06:02:57.992Z,-1.25
2023-01-22T06:06:01.203Z,-1.29
2023-01-22T06:09:03.685Z,-1.36
2023-01-22T06:12:10.645Z,-1.38
2023-01-22T06:15:13.038Z,-1.44
2023-01-22T06:18:21.244Z,-1.34
2023-01-22T06:21:23.593Z,-1.38
2023-01-22T06:24:26.457Z,-1.27
2023-01-22T06:27:28.882Z,-1.38
2023-01-22T06:30:36.362Z,-1.25
2023-01-22T06:33:41.512Z,-1.41
2023-01-22T06:36:44.201Z,-1.28
2023-01-22T06:39:47.043Z,-1.22
2023-01-22T06:43:10.559Z,-1.45
2023-01-22T06:46:14.250Z,-1.26
2023-01-22T06:49:35.097Z,-1.35
2023-01-22T06:52:37.439Z,-1.30
2023-01-22T06:55:39.863Z,-1.26
2023-01-22T06:58:42.319Z,-1.28
2023-01-22T07:01:44.807Z,-1.31
2023-01-22T07:04:47.218Z,-1.30
2023-01-22T07:07:49.615Z,-1.38
2023-01-22T07:10:51.965Z,-1.19
2023-01-22T07:13:54.226Z,-1.18
2023-01-22T07:16:56.723Z,-1.20
2023-01-22T07:19:59.138Z,-1.15
2023-01-22T07:23:01.415Z,-1.17
2023-01-22T07:26:03.721Z,-1.14
2023-01-22T07:29:06.296Z,-1.13
2023-01-22T07:32:08.646Z,-1.18
2023-01-22T07:35:10.999Z,-1.19
2023-01-22T07:38:13.421Z,-1.15
2023-01-22T07:41:25.431Z,-1.08
2023-01-22T07:44:28.305Z,-1.15
2023-01-22T07:47:30.631Z,-1.06
2023-01-22T07:50:33.118Z,-1.03
2023-01-22T07:53:35.581Z,-1.01
2023-01-22T07:56:37.942Z,-0.96
2023-01-22T07:59:40.268Z,-0.93
2023-01-22T08:02:43.361Z,-1.00
2023-01-22T08:05:45.685Z,-1.05
2023-01-22T08:08:48.054Z,-1.09
2023-01-22T08:11:50.413Z,-1.04
2023-01-22T08:14:52.741Z,-1.08
2023-01-22T08:17:55.008Z,-1.07
2023-01-22T08:21:01.338Z,-1.07
2023-01-22T08:24:05.167Z,-0.89
2023-01-22T08:27:07.505Z,-0.90
2023-01-22T08:30:14.482Z,-0.83
2023-01-22T08:33:16.803Z,-0.92
2023-01-22T08:36:19.137Z,-0.88
2023-01-22T08:39:21.438Z,-1.05
2023-01-22T08:42:23.814Z,-0.93
2023-01-22T08:45:26.184Z,-0.89
2023-01-22T08:48:28.478Z,-0.99
2023-01-22T08:51:33.041Z,-0.80
2023-01-22T08:54:35.412Z,-0.79
2023-01-22T08:57:37.984Z,-0.79
2023-01-22T09:00:40.317Z,-0.82
2023-01-22T09:03:43.318Z,-0.94
2023-01-22T09:06:45.624Z,-0.82
2023-01-22T09:09:47.957Z,-0.68
2023-01-22T09:12:50.282Z,-0.65
2023-01-22T09:15:58.443Z,-0.63
2023-01-22T09:19:00.883Z,-0.58
2023-01-22T09:22:06.649Z,-0.64
2023-01-22T09:25:09.497Z,-0.60
2023-01-22T09:28:12.473Z,-0.66
2023-01-22T09:31:15.360Z,-0.63
2023-01-22T09:34:17.784Z,-0.56
2023-01-22T09:37:20.238Z,-0.42
2023-01-22T09:40:32.631Z,-0.52
2023-01-22T09:43:38.072Z,-0.41
2023-01-22T09:46:50.029Z,-0.45
2023-01-22T09:49:58.816Z,-0.26
2023-01-22T09:53:04.902Z,-0.25
2023-01-22T09:56:08.153Z,-0.20
2023-01-22T09:59:17.323Z,-0.30
2023-01-22T10:02:38.557Z,-0.24
2023-01-22T10:05:47.627Z,-0.17
2023-01-22T10:08:52.965Z,-0.18
2023-01-22T10:11:55.915Z,-0.16
2023-01-22T10:14:58.560Z,-0.14
2023-01-22T10:18:01.039Z,-0.15
2023-01-22T10:21:06.928Z,-0.21
2023-01-22T10:24:12.730Z,-0.27
2023-01-22T10:27:20.757Z,-0.15
2023-01-22T10:30:25.755Z,-0.21
2023-01-22T10:33:28.681Z,-0.08
2023-01-22T10:36:31.940Z,0.02
2023-01-22T10:39:42.532Z,-0.05
2023-01-22T10:42:44.836Z,0.06
2023-01-22T10:46:13.840Z,0.01
2023-01-22T10:49:27.554Z,0.03
2023-01-22T10:52:54.953Z,0.03
2023-01-22T10:55:58.884Z,0.05
2023-01-22T10:59:06.138Z,0.24
2023-01-22T11:02:19.609Z,0.39
2023-01-22T11:05:24.522Z,0.44
2023-01-22T11:08:31.001Z,0.52
2023-01-22T11:11:37.993Z,0.77
2023-01-22T11:14:40.343Z,0.98
2023-01-22T11:17:49.535Z,1.11
2023-01-22T11:20:56.369Z,1.22
2023-01-22T11:24:05.540Z,1.35
2023-01-22T11:27:19.656Z,1.53
2023-01-22T11:30:21.934Z,1.67
2023-01-22T11:33:47.941Z,1.46
2023-01-22T11:36:59.791Z,1.59
2023-01-22T11:40:18.233Z,1.55
2023-01-22T11:43:29.876Z,1.44
2023-01-22T11:46:53.984Z,1.27
2023-01-22T11:50:22.564Z,1.59
2023-01-22T11:53:49.715Z,1.44
2023-01-22T11:57:10.171Z,1.40
2023-01-22T12:00:32.963Z,1.10
2023-01-22T12:03:50.143Z,1.29
2023-01-22T12:07:13.944Z,1.37
2023-01-22T12:10:28.012Z,1.37
2023-01-22T12:13:30.383Z,1.17
2023-01-22T12:16:56.793Z,1.13
2023-01-22T12:20:37.900Z,1.02
2023-01-22T12:24:04.923Z,1.13
2023-01-22T12:27:12.449Z,0.94
2023-01-22T12:30:29.066Z,0.97
2023-01-22T12:33:36.655Z,0.68
2023-01-22T12:36:39.728Z,0.88
2023-01-22T12:40:12.800Z,0.95
2023-01-22T12:43:15.524Z,0.93
2023-01-22T12:46:39.008Z,0.80
2023-01-22T12:49:50.010Z,0.73
2023-01-22T12:53:04.085Z,0.59
2023-01-22T12:56:10.184Z,0.81
2023-01-22T12:59:32.043Z,0.79
2023-01-22T13:02:39.361Z,0.85
2023-01-22T13:05:46.974Z,0.72
2023-01-22T13:08:49.339Z,0.78
2023-01-22T13:11:51.752Z,0.67
2023-01-22T13:14:54.508Z,0.73
2023-01-22T13:18:31.692Z,0.92
2023-01-22T13:21:34.570Z,1.11
2023-01-22T13:24:36.967Z,0.95
2023-01-22T13:27:39.323Z,0.99
2023-01-22T13:30:41.860Z,1.05
2023-01-22T13:33:57.595Z,1.16
2023-01-22T13:37:00.424Z,1.17
2023-01-22T13:40:12.881Z,1.25
2023-01-22T13:43:20.477Z,1.22
2023-01-22T13:46:22.903Z,1.13
2023-01-22T13:49:29.950Z,1.10
2023-01-22T13:52:33.646Z,1.10
2023-01-22T13:55:36.046Z,1.00
2023-01-22T13:58:48.840Z,0.79
2023-01-22T14:01:52.253Z,0.85
2023-01-22T14:04:54.884Z,0.91
2023-01-22T14:08:08.723Z,0.82
2023-01-22T14:11:11.087Z,0.91
2023-01-22T14:14:18.151Z,0.94
2023-01-22T14:17:34.380Z,0.93
2023-01-22T14:20:40.057Z,0.84
2023-01-22T14:23:42.898Z,0.88
2023-01-22T14:26:45.256Z,0.75
2023-01-22T14:29:47.628Z,0.74
2023-01-22T14:32:49.943Z,0.90
2023-01-22T14:35:53.183Z,0.81
2023-01-22T14:38:57.678Z,0.71
2023-01-22T14:42:00.599Z,0.75
2023-01-22T14:45:02.945Z,0.79
2023-01-22T14:48:05.461Z,0.64
2023-01-22T14:51:09.885Z,0.77
2023-01-22T14:54:12.324Z,0.81
2023-01-22T14:57:14.714Z,0.86
2023-01-22T15:00:19.339Z,0.84
2023-01-22T15:03:21.812Z,0.82
2023-01-22T15:06:25.091Z,0.84
2023-01-22T15:09:27.509Z,0.74
2023-01-22T15:12:30.007Z,0.73
2023-01-22T15:15:32.522Z,0.72
2023-01-22T15:18:36.190Z,0.71
2023-01-22T15:21:38.553Z,0.68
2023-01-22T15:24:41.004Z,0.55
2023-01-22T15:27:44.639Z,0.58
2023-01-22T15:30:49.020Z,0.51
2023-01-22T15:33:51.558Z,0.57
2023-01-22T15:36:54.717Z,0.52
2023-01-22T15:39:58.526Z,0.55
2023-01-22T15:43:02.790Z,0.55
2023-01-22T15:46:05.961Z,0.76
2023-01-22T15:49:09.159Z,0.55
2023-01-22T15:52:11.468Z,0.60
2023-01-22T15:55:13.793Z,0.41
2023-01-22T15:58:16.134Z,0.45
2023-01-22T16:01:19.662Z,0.39
2023-01-22T16:04:23.405Z,0.51
2023-01-22T16:07:30.659Z,0.28
2023-01-22T16:10:35.390Z,0.57
2023-01-22T16:13:42.049Z,0.46
2023-01-22T16:16:45.492Z,0.60
2023-01-22T16:19:51.097Z,0.55
2023-01-22T16:22:54.730Z,0.56
2023-01-22T16:25:59.058Z,0.56
2023-01-22T16:29:04.993Z,0.55
2023-01-22T16:32:08.966Z,0.37
2023-01-22T16:35:15.897Z,0.51
2023-01-22T16:38:19.810Z,0.50
2023-01-22T16:41:29.423Z,0.41
2023-01-22T16:44:35.881Z,0.57
2023-01-22T16:47:39.529Z,0.46
2023-01-22T16:50:42.987Z,0.40
2023-01-22T16:53:47.536Z,0.47
2023-01-22T16:56:53.795Z,0.21
2023-01-22T16:59:58.716Z,0.37
2023-01-22T17:03:02.220Z,0.23
2023-01-22T17:06:06.261Z,0.12
2023-01-22T17:09:15.785Z,0.23
2023-01-22T17:12:19.426Z,0.16
2023-01-22T17:15:22.815Z,0.01
2023-01-22T17:18:26.436Z,-0.01
2023-01-22T17:21:39.264Z,0.11
2023-01-22T17:24:43.473Z,0.27
2023-01-22T17:27:47.260Z,0.20
2023-01-22T17:30:50.880Z,0.16
2023-01-22T17:33:57.924Z,0.14
2023-01-22T17:37:02.223Z,0.20
2023-01-22T17:40:06.333Z,0.08
2023-01-22T17:43:09.631Z,0.03
2023-01-22T17:46:39.344Z,0.18
2023-01-22T17:49:42.449Z,0.29
2023-01-22T17:52:45.670Z,0.19
2023-01-22T17:55:49.536Z,0.22
2023-01-22T17:58:58.446Z,0.31
2023-01-22T18:02:01.850Z,0.40
2023-01-22T18:05:06.541Z,0.53
2023-01-22T18:08:10.950Z,0.52
2023-01-22T18:11:16.970Z,0.53
2023-01-22T18:14:24.267Z,0.57
2023-01-22T18:17:29.842Z,0.51
2023-01-22T18:20:39.358Z,0.46
2023-01-22T18:23:43.269Z,0.54
2023-01-22T18:26:46.007Z,0.59
2023-01-22T18:29:51.391Z,0.61
2023-01-22T18:32:55.121Z,0.48
2023-01-22T18:36:02.804Z,0.46
2023-01-22T18:39:15.542Z,0.53
2023-01-22T18:42:19.717Z,0.58
2023-01-22T18:45:23.401Z,0.53
2023-01-22T18:48:26.221Z,0.58
2023-01-22T18:51:29.983Z,0.54
2023-01-22T18:54:33.186Z,0.53
2023-01-22T18:57:40.127Z,0.53
2023-01-22T19:00:43.207Z,0.54
2023-01-22T19:03:53.610Z,0.38
2023-01-22T19:06:57.811Z,0.44
2023-01-22T19:10:00.793Z,0.28
2023-01-22T19:13:03.642Z,0.03
2023-01-22T19:16:11.964Z,-0.11
2023-01-22T19:19:15.792Z,0.06
2023-01-22T19:22:19.481Z,0.29
2023-01-22T19:25:23.170Z,0.38
2023-01-22T19:28:26.407Z,0.50
2023-01-22T19:31:32.728Z,0.42
2023-01-22T19:34:35.927Z,0.23
2023-01-22T19:37:38.894Z,0.23
2023-01-22T19:40:45.383Z,0.33
2023-01-22T19:43:48.497Z,0.39
2023-01-22T19:46:51.456Z,0.46
2023-01-22T19:49:56.594Z,0.48
2023-01-22T19:52:59.462Z,0.47
2023-01-22T19:56:02.527Z,0.56
2023-01-22T19:59:12.041Z,0.54
2023-01-22T20:02:15.531Z,0.54
2023-01-22T20:05:20.813Z,0.51
2023-01-22T20:08:24.005Z,0.61
2023-01-22T20:11:27.864Z,0.49
2023-01-22T20:14:31.301Z,0.55
2023-01-22T20:17:34.255Z,0.54
2023-01-22T20:20:37.861Z,0.49
2023-01-22T20:23:40.670Z,0.40
2023-01-22T20:26:43.886Z,0.39
2023-01-22T20:29:46.393Z,0.37
2023-01-22T20:32:48.812Z,0.26
2023-01-22T20:35:51.486Z,0.29
2023-01-22T20:38:54.802Z,0.25
2023-01-22T20:41:59.168Z,0.18
2023-01-22T20:45:02.040Z,0.30
2023-01-22T20:48:05.374Z,0.27
2023-01-22T20:51:16.674Z,0.16
2023-01-22T20:54:20.258Z,0.17
2023-01-22T20:57:23.402Z,0.31
2023-01-22T21:00:26.042Z,0.23
2023-01-22T21:03:28.866Z,0.23
2023-01-22T21:06:34.648Z,0.26
2023-01-22T21:09:39.610Z,0.24
2023-01-22T21:12:42.645Z,0.26
2023-01-22T21:15:45.275Z,0.29
2023-01-22T21:18:47.997Z,0.31
2023-01-22T21:21:51.224Z,0.29
2023-01-22T21:24:54.049Z,0.28
2023-01-22T21:27:56.780Z,0.20
2023-01-22T21:31:19.920Z,0.07
2023-01-22T21:34:24.792Z,0.16
2023-01-22T21:37:27.195Z,0.13
2023-01-22T21:40:30.938Z,0.31
2023-01-22T21:43:52.050Z,0.13
2023-01-22T21:46:54.473Z,0.02
2023-01-22T21:49:57.067Z,0.03
2023-01-22T21:52:59.455Z,0.20
2023-01-22T21:56:01.919Z,0.09
2023-01-22T21:59:04.340Z,0.07
2023-01-22T22:02:07.846Z,0.01
2023-01-22T22:05:11.455Z,0.37
2023-01-22T22:08:13.843Z,0.08
2023-01-22T22:11:16.215Z,0.19
2023-01-22T22:14:23.121Z,0.37
2023-01-22T22:17:25.635Z,0.33
2023-01-22T22:20:29.213Z,0.22
2023-01-22T22:23:32.200Z,0.06
2023-01-22T22:26:35.028Z,0.13
2023-01-22T22:29:37.453Z,0.27
2023-01-22T22:32:40.702Z,0.10
2023-01-22T22:35:48.168Z,0.25
2023-01-22T22:38:52.366Z,0.28
2023-01-22T22:41:55.889Z,0.18
2023-01-22T22:44:59.633Z,0.26
2023-01-22T22:48:02.746Z,0.35
2023-01-22T22:51:16.725Z,0.23
2023-01-22T22:54:20.275Z,0.32
2023-01-22T22:57:22.853Z,0.33
2023-01-22T23:00:25.629Z,0.33
2023-01-22T23:03:28.186Z,0.12
2023-01-22T23:06:32.710Z,0.32
2023-01-22T23:09:44.263Z,0.34
2023-01-22T23:12:46.602Z,0.25
2023-01-22T23:15:48.999Z,0.18
2023-01-22T23:18:52.363Z,0.27
2023-01-22T23:21:56.866Z,0.33
2023-01-22T23:24:59.336Z,0.38
2023-01-22T23:28:01.767Z,0.42
2023-01-22T23:31:06.270Z,0.31
2023-01-22T23:34:12.242Z,0.30
2023-01-22T23:37:14.587Z,0.18
2023-01-22T23:40:17.389Z,0.07
2023-01-22T23:43:19.922Z,0.19
2023-01-22T23:46:28.039Z,0.14
2023-01-22T23:49:30.635Z,0.13
2023-01-22T23:52:33.007Z,-0.03
2023-01-22T23:55:35.415Z,0.12
2023-01-22T23:58:38.854Z,0.14
